Time;durP1;ratioP1;P1;durP2;ratioP2;P2;SDS_P1;SDS_P2;PMS_P1;PMS_P2;Temp;Humidity;BMP_temperature;BMP_pressure;BME280_temperature;BME280_humidity;BME280_pressure;Samples;Min_cycle;Max_cycle;Signal;HPM_P1;HPM_P2
2021/11/30 00:00:06;;;;;;;;;;;4.50;99.90;;;;;;5115465;28;20394;-78
2021/11/30 00:02:32;;;;;;;;;;;4.30;99.90;;;;;;5115380;28;19998;-79
2021/11/30 00:04:58;;;;;;;;;;;4.40;99.90;;;;;;5115274;28;20336;-78
2021/11/30 00:07:23;;;;;;;;;;;4.30;99.90;;;;;;5115211;28;19915;-78
2021/11/30 00:12:18;;;;;;;;;;;4.10;99.90;;;;;;5115179;28;19918;-78
2021/11/30 00:14:45;;;;;;;;;;;4.30;99.90;;;;;;5114978;28;20387;-78
2021/11/30 00:17:12;;;;;;;;;;;4.30;99.90;;;;;;5114399;28;19976;-79
2021/11/30 00:19:38;;;;;;;;;;;4.30;99.90;;;;;;5115106;28;19999;-79
2021/11/30 00:22:05;;;;;;;;;;;4.40;99.90;;;;;;5114918;28;19912;-80
2021/11/30 00:24:30;;;;;;;;;;;4.60;99.90;;;;;;5114887;28;19907;-80
2021/11/30 00:26:57;;;;;;;;;;;4.70;99.90;;;;;;5114856;28;19995;-80
2021/11/30 00:29:22;;;;;;;;;;;4.70;99.90;;;;;;5096553;28;19908;-80
2021/11/30 00:31:48;;;;;;;;;;;4.70;99.90;;;;;;5114774;28;19911;-78
2021/11/30 00:34:14;;;;;;;;;;;4.80;99.90;;;;;;5114739;28;19908;-78
2021/11/30 00:36:40;;;;;;;;;;;4.80;99.90;;;;;;5114636;28;19958;-79
2021/11/30 00:39:05;;;;;;;;;;;4.70;99.90;;;;;;5114586;28;20000;-78
2021/11/30 00:41:31;;;;;;;;;;;4.90;99.90;;;;;;5114558;28;19907;-80
2021/11/30 00:43:57;;;;;;;;;;;4.90;99.90;;;;;;5096294;28;20372;-81
2021/11/30 00:46:37;;;;;;;;;;;5.10;99.90;;;;;;5114516;28;19990;-80
2021/11/30 00:49:04;;;;;;;;;;;5.10;99.90;;;;;;5095968;28;20445;-80
2021/11/30 00:51:30;;;;;;;;;;;5.10;99.90;;;;;;5114474;28;19911;-80
2021/11/30 00:53:56;;;;;;;;;;;5.20;99.90;;;;;;5096162;28;19908;-81
2021/11/30 00:56:22;;;;;;;;;;;5.50;99.90;;;;;;5114600;28;19915;-81
2021/11/30 00:58:48;;;;;;;;;;;5.60;99.90;;;;;;5114927;28;19915;-80
2021/11/30 01:01:14;;;;;;;;;;;5.60;99.90;;;;;;5114350;28;19915;-78
2021/11/30 01:03:40;;;;;;;;;;;5.50;99.90;;;;;;5114417;28;19908;-78
2021/11/30 01:06:08;;;;;;;;;;;5.40;99.90;;;;;;5114245;28;19908;-77
2021/11/30 01:08:34;;;;;;;;;;;5.50;99.90;;;;;;5095997;28;20279;-78
2021/11/30 01:11:00;;;;;;;;;;;5.60;99.90;;;;;;5113986;28;19926;-79
2021/11/30 01:13:25;;;;;;;;;;;5.70;99.90;;;;;;5095919;28;19943;-79
2021/11/30 01:15:51;;;;;;;;;;;5.70;99.90;;;;;;5114145;28;20279;-78
2021/11/30 01:18:17;;;;;;;;;;;5.80;99.90;;;;;;5114505;28;19908;-80
2021/11/30 01:20:42;;;;;;;;;;;5.90;99.90;;;;;;5114443;28;19947;-80
2021/11/30 01:23:08;;;;;;;;;;;5.90;99.90;;;;;;5114079;28;20379;-80
2021/11/30 01:25:34;;;;;;;;;;;6.00;99.90;;;;;;5114060;28;20390;-80
2021/11/30 01:28:00;;;;;;;;;;;5.90;99.90;;;;;;5116940;28;20283;-81
2021/11/30 01:30:25;;;;;;;;;;;6.00;99.90;;;;;;5099855;28;19912;-80
2021/11/30 01:32:51;;;;;;;;;;;5.80;99.90;;;;;;5118370;28;19915;-81
2021/11/30 01:35:17;;;;;;;;;;;5.90;99.90;;;;;;5099834;28;19908;-80
2021/11/30 01:37:43;;;;;;;;;;;5.90;99.90;;;;;;5118425;28;19943;-80
2021/11/30 01:40:10;;;;;;;;;;;5.80;99.90;;;;;;5099680;28;19914;-80
2021/11/30 01:42:40;;;;;;;;;;;5.80;99.90;;;;;;5118016;28;20261;-81
2021/11/30 01:45:07;;;;;;;;;;;5.80;99.90;;;;;;5118034;28;19915;-80
2021/11/30 01:49:59;;;;;;;;;;;5.70;99.90;;;;;;5117860;28;19963;-80
2021/11/30 01:52:26;;;;;;;;;;;5.40;99.90;;;;;;5099415;28;20359;-78
2021/11/30 01:54:52;;;;;;;;;;;5.40;99.90;;;;;;5117824;28;19954;-78
2021/11/30 01:57:20;;;;;;;;;;;5.40;99.90;;;;;;5117895;28;19908;-78
2021/11/30 01:59:46;;;;;;;;;;;5.30;99.90;;;;;;5117649;28;19912;-78
2021/11/30 02:02:12;;;;;;;;;;;5.40;99.90;;;;;;5117166;28;19915;-78
2021/11/30 02:04:38;;;;;;;;;;;5.40;99.90;;;;;;5117610;28;19914;-78
2021/11/30 02:07:04;;;;;;;;;;;5.50;99.90;;;;;;5117585;28;19907;-78
2021/11/30 02:09:30;;;;;;;;;;;5.40;99.90;;;;;;5099005;28;19937;-78
2021/11/30 02:11:56;;;;;;;;;;;5.40;99.90;;;;;;5117603;28;19915;-79
2021/11/30 02:14:22;;;;;;;;;;;5.50;99.90;;;;;;5099214;28;20403;-78
2021/11/30 02:16:48;;;;;;;;;;;5.60;99.90;;;;;;5117632;28;20372;-78
2021/11/30 02:19:14;;;;;;;;;;;5.80;99.90;;;;;;5117483;28;19908;-78
2021/11/30 02:21:40;;;;;;;;;;;5.80;99.90;;;;;;5098962;28;19908;-78
2021/11/30 02:24:06;;;;;;;;;;;5.80;99.90;;;;;;5117298;28;19995;-77
2021/11/30 02:26:34;;;;;;;;;;;5.90;99.90;;;;;;5117290;28;19947;-78
2021/11/30 02:29:01;;;;;;;;;;;6.00;99.90;;;;;;5117210;28;19908;-79
2021/11/30 02:31:31;;;;;;;;;;;6.10;99.90;;;;;;5117111;28;19912;-78
2021/11/30 02:33:57;;;;;;;;;;;6.10;99.90;;;;;;5117057;28;19914;-78
2021/11/30 02:36:25;;;;;;;;;;;6.10;99.90;;;;;;5117429;28;19995;-79
2021/11/30 02:38:51;;;;;;;;;;;6.20;99.90;;;;;;5116135;28;19953;-78
2021/11/30 02:41:17;;;;;;;;;;;6.10;99.90;;;;;;5117051;28;20394;-78
2021/11/30 02:43:42;;;;;;;;;;;6.20;99.90;;;;;;5116875;28;19908;-78
2021/11/30 02:46:08;;;;;;;;;;;6.20;99.90;;;;;;5116836;28;20324;-79
2021/11/30 02:48:33;;;;;;;;;;;6.30;99.90;;;;;;5098562;28;19969;-79
2021/11/30 02:51:04;;;;;;;;;;;6.40;99.90;;;;;;5116706;28;19918;-78
2021/11/30 02:53:31;;;;;;;;;;;6.50;99.90;;;;;;5116834;28;19908;-78
2021/11/30 02:55:56;;;;;;;;;;;6.50;99.90;;;;;;5116676;28;19908;-80
2021/11/30 02:58:22;;;;;;;;;;;6.50;99.90;;;;;;5098244;28;19915;-80
2021/11/30 03:00:48;;;;;;;;;;;6.60;99.90;;;;;;5116725;28;20363;-80
2021/11/30 03:03:14;;;;;;;;;;;6.70;99.90;;;;;;5116796;28;19908;-80
2021/11/30 03:05:40;;;;;;;;;;;6.80;99.90;;;;;;5116468;28;19920;-80
2021/11/30 03:08:06;;;;;;;;;;;6.70;99.90;;;;;;5116454;28;19919;-78
2021/11/30 03:10:31;;;;;;;;;;;6.50;99.90;;;;;;5116433;28;20379;-78
2021/11/30 03:12:57;;;;;;;;;;;6.40;99.90;;;;;;5116437;28;19908;-79
2021/11/30 03:15:23;;;;;;;;;;;6.30;99.90;;;;;;5116460;28;19908;-78
2021/11/30 03:17:50;;;;;;;;;;;6.40;99.90;;;;;;5097812;28;20268;-78
2021/11/30 03:20:16;;;;;;;;;;;6.30;99.90;;;;;;5116167;28;19918;-78
2021/11/30 03:22:42;;;;;;;;;;;6.60;99.90;;;;;;5097831;28;19912;-78
2021/11/30 03:25:09;;;;;;;;;;;6.60;99.90;;;;;;5097841;28;20283;-77
2021/11/30 03:27:35;;;;;;;;;;;6.80;99.90;;;;;;5116012;28;19908;-78
2021/11/30 03:30:02;;;;;;;;;;;6.70;99.90;;;;;;5116444;28;19908;-78
2021/11/30 03:35:00;;;;;;;;;;;6.60;99.90;;;;;;5115595;28;19976;-78
2021/11/30 03:37:26;;;;;;;;;;;6.80;99.90;;;;;;5115799;28;19916;-78
2021/11/30 03:39:52;;;;;;;;;;;6.90;99.90;;;;;;5115697;28;19908;-78
2021/11/30 03:42:18;;;;;;;;;;;6.80;99.90;;;;;;5115880;28;19907;-78
2021/11/30 03:44:43;;;;;;;;;;;6.80;99.90;;;;;;5115658;28;19995;-78
2021/11/30 03:47:09;;;;;;;;;;;6.70;99.90;;;;;;5115673;28;19915;-79
2021/11/30 03:49:34;;;;;;;;;;;6.60;99.90;;;;;;5114974;28;19912;-78
2021/11/30 03:52:00;;;;;;;;;;;6.70;99.90;;;;;;5096268;28;19911;-78
2021/11/30 03:54:27;;;;;;;;;;;6.60;99.90;;;;;;5115508;28;19908;-78
2021/11/30 03:56:53;;;;;;;;;;;6.60;99.90;;;;;;5115410;28;20398;-78
2021/11/30 03:59:18;;;;;;;;;;;6.60;99.90;;;;;;5115403;28;19908;-79
2021/11/30 04:01:44;;;;;;;;;;;6.70;99.90;;;;;;5115547;28;19930;-78
2021/11/30 04:04:31;;;;;;;;;;;6.70;99.90;;;;;;5115698;28;19907;-78
2021/11/30 04:06:57;;;;;;;;;;;6.80;99.90;;;;;;5096655;28;19914;-78
2021/11/30 04:09:24;;;;;;;;;;;6.70;99.90;;;;;;5115174;28;19994;-79
2021/11/30 04:11:50;;;;;;;;;;;6.60;99.90;;;;;;5114603;28;20486;-78
2021/11/30 04:14:15;;;;;;;;;;;6.60;99.90;;;;;;5115330;28;19947;-78
2021/11/30 04:16:41;;;;;;;;;;;6.60;99.90;;;;;;5096814;28;19912;-79
2021/11/30 04:19:07;;;;;;;;;;;6.50;99.90;;;;;;5115126;28;20284;-78
2021/11/30 04:21:33;;;;;;;;;;;6.50;99.90;;;;;;5114996;28;19908;-78
2021/11/30 04:23:58;;;;;;;;;;;6.60;99.90;;;;;;5114940;28;19908;-78
2021/11/30 04:26:24;;;;;;;;;;;6.60;99.90;;;;;;5115092;28;20003;-78
2021/11/30 04:28:50;;;;;;;;;;;6.60;99.90;;;;;;5114981;28;19919;-78
2021/11/30 04:31:15;;;;;;;;;;;6.60;99.90;;;;;;5114721;28;19916;-78
2021/11/30 04:33:41;;;;;;;;;;;6.70;99.90;;;;;;5114737;28;20371;-78
2021/11/30 04:36:07;;;;;;;;;;;6.90;99.90;;;;;;5114695;28;19908;-78
2021/11/30 04:38:37;;;;;;;;;;;6.90;99.90;;;;;;5114679;28;19912;-78
2021/11/30 04:41:03;;;;;;;;;;;6.70;99.90;;;;;;5114592;28;19908;-79
2021/11/30 04:43:34;;;;;;;;;;;6.60;99.90;;;;;;5114553;28;20002;-78
2021/11/30 04:46:05;;;;;;;;;;;6.60;99.90;;;;;;5096045;28;19907;-78
2021/11/30 04:48:32;;;;;;;;;;;6.70;99.90;;;;;;5096026;28;20349;-79
2021/11/30 04:51:00;;;;;;;;;;;6.70;99.90;;;;;;5114385;28;19919;-78
2021/11/30 04:53:28;;;;;;;;;;;6.60;99.90;;;;;;5114556;28;20363;-79
2021/11/30 04:55:54;;;;;;;;;;;6.70;99.90;;;;;;5096141;28;20292;-78
2021/11/30 04:58:19;;;;;;;;;;;6.80;99.90;;;;;;5114801;28;19907;-78
2021/11/30 05:00:46;;;;;;;;;;;6.80;99.90;;;;;;5114495;28;20372;-78
2021/11/30 05:03:12;;;;;;;;;;;6.70;99.90;;;;;;5113980;28;19907;-78
2021/11/30 05:05:38;;;;;;;;;;;6.70;99.90;;;;;;5114318;28;20364;-78
2021/11/30 05:08:04;;;;;;;;;;;6.50;99.90;;;;;;5113912;28;19947;-78
2021/11/30 05:10:30;;;;;;;;;;;6.50;99.90;;;;;;5095503;28;20411;-78
2021/11/30 05:12:58;;;;;;;;;;;6.50;99.90;;;;;;5113696;28;20416;-78
2021/11/30 05:15:23;;;;;;;;;;;6.50;99.90;;;;;;5114387;28;19914;-78
2021/11/30 05:17:49;;;;;;;;;;;6.50;99.90;;;;;;5114191;28;19914;-78
2021/11/30 05:20:15;;;;;;;;;;;6.60;99.90;;;;;;5095891;28;19908;-79
2021/11/30 05:22:40;;;;;;;;;;;6.60;99.90;;;;;;5114088;28;20006;-78
2021/11/30 05:25:07;;;;;;;;;;;6.60;99.90;;;;;;5114041;28;19937;-78
2021/11/30 05:27:38;;;;;;;;;;;6.60;99.90;;;;;;5114010;28;19957;-78
2021/11/30 05:30:05;;;;;;;;;;;6.70;99.90;;;;;;5095495;28;19908;-78
2021/11/30 05:32:31;;;;;;;;;;;6.60;99.90;;;;;;5114100;28;20372;-78
2021/11/30 05:34:56;;;;;;;;;;;6.50;99.90;;;;;;5114275;28;19908;-77
2021/11/30 05:37:22;;;;;;;;;;;6.60;99.90;;;;;;5113928;28;19908;-78
2021/11/30 05:39:47;;;;;;;;;;;6.60;99.90;;;;;;5113925;28;19911;-78
2021/11/30 05:42:13;;;;;;;;;;;6.70;99.90;;;;;;5113905;28;19922;-78
2021/11/30 05:44:39;;;;;;;;;;;6.60;99.90;;;;;;5114342;28;19907;-77
2021/11/30 05:47:04;;;;;;;;;;;6.50;99.90;;;;;;5114166;28;19908;-77
2021/11/30 05:49:30;;;;;;;;;;;6.40;99.90;;;;;;5113799;28;20006;-78
2021/11/30 05:51:55;;;;;;;;;;;6.40;99.90;;;;;;5113798;28;20363;-78
2021/11/30 05:54:21;;;;;;;;;;;6.40;99.90;;;;;;5113838;28;20283;-77
2021/11/30 05:56:47;;;;;;;;;;;6.50;99.90;;;;;;5095507;28;19915;-78
2021/11/30 05:59:15;;;;;;;;;;;6.50;99.90;;;;;;5113715;28;19907;-78
2021/11/30 06:01:41;;;;;;;;;;;6.50;99.90;;;;;;5113644;28;19907;-78
2021/11/30 06:04:06;;;;;;;;;;;6.50;99.90;;;;;;5113686;28;20321;-77
2021/11/30 06:06:33;;;;;;;;;;;6.50;99.90;;;;;;5113627;28;19914;-78
2021/11/30 06:09:00;;;;;;;;;;;6.40;99.90;;;;;;5114013;28;19978;-78
2021/11/30 06:11:25;;;;;;;;;;;6.40;99.90;;;;;;5112939;28;20411;-78
2021/11/30 06:13:51;;;;;;;;;;;6.40;99.90;;;;;;5114373;28;19912;-78
2021/11/30 06:16:17;;;;;;;;;;;6.40;99.90;;;;;;5117510;28;20368;-78
2021/11/30 06:18:43;;;;;;;;;;;6.50;99.90;;;;;;5117302;28;20280;-78
2021/11/30 06:21:09;;;;;;;;;;;6.50;99.90;;;;;;5117735;28;19915;-78
2021/11/30 06:23:35;;;;;;;;;;;6.50;99.90;;;;;;5099073;28;19921;-78
2021/11/30 06:26:00;;;;;;;;;;;6.50;99.90;;;;;;5117250;28;19990;-78
2021/11/30 06:28:26;;;;;;;;;;;6.50;99.90;;;;;;5098923;28;20321;-78
2021/11/30 06:30:52;;;;;;;;;;;6.50;99.90;;;;;;5117081;28;19912;-78
2021/11/30 06:33:18;;;;;;;;;;;6.50;99.90;;;;;;5117312;28;19908;-78
2021/11/30 06:35:43;;;;;;;;;;;6.50;99.90;;;;;;5117053;28;19912;-78
2021/11/30 06:38:09;;;;;;;;;;;6.60;99.90;;;;;;5117523;28;19907;-78
2021/11/30 06:40:34;;;;;;;;;;;6.60;99.90;;;;;;5116913;28;20001;-78
2021/11/30 06:43:00;;;;;;;;;;;6.50;99.90;;;;;;5116873;28;19908;-78
2021/11/30 06:45:26;;;;;;;;;;;6.50;99.90;;;;;;5098607;28;20432;-79
2021/11/30 06:47:51;;;;;;;;;;;6.60;99.90;;;;;;5098552;28;19908;-79
2021/11/30 06:50:17;;;;;;;;;;;6.50;99.90;;;;;;5116807;28;19952;-79
2021/11/30 06:52:43;;;;;;;;;;;6.50;99.90;;;;;;5116966;28;19945;-79
2021/11/30 06:55:09;;;;;;;;;;;6.60;99.90;;;;;;5116871;28;20351;-78
2021/11/30 06:57:35;;;;;;;;;;;6.50;99.90;;;;;;5116605;28;19912;-79
2021/11/30 07:00:05;;;;;;;;;;;6.50;99.90;;;;;;5116557;28;20006;-78
2021/11/30 07:02:30;;;;;;;;;;;6.50;99.90;;;;;;5098097;28;19915;-77
2021/11/30 07:04:59;;;;;;;;;;;6.60;99.90;;;;;;5116490;28;19908;-77
2021/11/30 07:07:35;;;;;;;;;;;6.50;99.90;;;;;;5116578;28;19969;-78
2021/11/30 07:10:33;;;;;;;;;;;6.50;99.90;;;;;;5116222;28;19923;-78
2021/11/30 07:15:43;;;;;;;;;;;6.50;99.90;;;;;;5116312;28;20007;-78
2021/11/30 07:18:10;;;;;;;;;;;6.50;99.90;;;;;;5116665;28;20007;-77
2021/11/30 07:20:36;;;;;;;;;;;6.60;99.90;;;;;;5116132;28;19911;-78
2021/11/30 07:23:02;;;;;;;;;;;6.60;99.90;;;;;;5097890;28;20433;-79
2021/11/30 07:25:28;;;;;;;;;;;6.70;99.90;;;;;;5115851;28;20325;-78
2021/11/30 07:27:53;;;;;;;;;;;6.70;99.90;;;;;;5116065;28;20003;-78
2021/11/30 07:30:20;;;;;;;;;;;6.80;99.90;;;;;;5116502;28;19907;-78
2021/11/30 07:32:45;;;;;;;;;;;6.90;99.90;;;;;;5115867;28;19915;-78
2021/11/30 07:35:11;;;;;;;;;;;6.90;99.90;;;;;;5116195;28;19968;-77
2021/11/30 07:37:36;;;;;;;;;;;6.80;99.90;;;;;;5115820;28;19908;-78
2021/11/30 07:40:03;;;;;;;;;;;6.80;99.90;;;;;;5115741;28;20360;-78
2021/11/30 07:42:31;;;;;;;;;;;6.80;99.90;;;;;;5115716;28;19957;-80
2021/11/30 07:44:57;;;;;;;;;;;6.80;99.90;;;;;;5115661;28;20006;-80
2021/11/30 07:47:23;;;;;;;;;;;6.90;99.90;;;;;;5115779;28;19943;-80
2021/11/30 07:49:48;;;;;;;;;;;6.90;99.90;;;;;;5115759;28;19908;-80
2021/11/30 07:52:14;;;;;;;;;;;6.90;99.90;;;;;;5115495;28;19935;-80
2021/11/30 07:54:39;;;;;;;;;;;6.90;99.90;;;;;;5115739;28;19908;-78
2021/11/30 07:57:05;;;;;;;;;;;6.90;99.90;;;;;;5115500;28;20284;-78
2021/11/30 07:59:32;;;;;;;;;;;6.90;99.90;;;;;;5115476;28;19908;-78
2021/11/30 08:01:58;;;;;;;;;;;7.00;99.90;;;;;;5115351;28;20380;-78
2021/11/30 08:04:23;;;;;;;;;;;7.00;99.90;;;;;;5115334;28;19915;-78
2021/11/30 08:06:49;;;;;;;;;;;7.00;99.90;;;;;;5115679;28;19907;-77
2021/11/30 08:09:14;;;;;;;;;;;7.10;99.90;;;;;;5115268;28;19977;-78
2021/11/30 08:11:40;;;;;;;;;;;7.20;99.90;;;;;;5114665;28;19920;-78
2021/11/30 08:14:06;;;;;;;;;;;7.20;99.90;;;;;;5115185;28;19918;-78
2021/11/30 08:16:31;;;;;;;;;;;7.20;99.90;;;;;;5115575;28;19990;-79
2021/11/30 08:18:57;;;;;;;;;;;7.30;99.90;;;;;;5115043;28;19915;-78
2021/11/30 08:21:23;;;;;;;;;;;7.30;99.90;;;;;;5114822;28;20362;-78
2021/11/30 08:23:48;;;;;;;;;;;7.40;99.90;;;;;;5114729;28;19911;-78
2021/11/30 08:26:14;;;;;;;;;;;7.50;99.90;;;;;;5115074;28;19911;-79
2021/11/30 08:28:40;;;;;;;;;;;7.60;99.90;;;;;;5114872;28;19995;-79
2021/11/30 08:31:05;;;;;;;;;;;7.70;99.90;;;;;;5114672;28;20430;-78
2021/11/30 08:33:31;;;;;;;;;;;7.70;99.90;;;;;;5114912;28;19908;-78
2021/11/30 08:35:56;;;;;;;;;;;7.80;99.90;;;;;;5114556;28;19908;-78
2021/11/30 08:38:23;;;;;;;;;;;7.90;99.90;;;;;;5095943;28;19922;-78
2021/11/30 08:40:49;;;;;;;;;;;7.80;99.90;;;;;;5114539;28;19950;-78
2021/11/30 08:43:15;;;;;;;;;;;7.90;99.90;;;;;;5114482;28;19943;-78
2021/11/30 08:45:41;;;;;;;;;;;7.90;99.90;;;;;;5114543;28;19932;-78
2021/11/30 08:48:06;;;;;;;;;;;8.00;99.90;;;;;;5114454;28;19994;-79
2021/11/30 08:50:32;;;;;;;;;;;8.00;99.90;;;;;;5114317;28;19908;-78
2021/11/30 08:52:58;;;;;;;;;;;8.00;99.90;;;;;;5114485;28;19914;-78
2021/11/30 08:55:24;;;;;;;;;;;8.00;99.90;;;;;;5114552;28;19907;-78
2021/11/30 08:57:50;;;;;;;;;;;8.10;99.90;;;;;;5114445;28;19912;-78
2021/11/30 09:00:19;;;;;;;;;;;8.20;99.90;;;;;;5114439;28;19961;-78
2021/11/30 09:02:45;;;;;;;;;;;8.20;99.90;;;;;;5114900;28;19908;-78
2021/11/30 09:05:11;;;;;;;;;;;8.10;99.90;;;;;;5114293;28;19957;-78
2021/11/30 09:07:37;;;;;;;;;;;8.10;99.90;;;;;;5114330;28;19912;-78
2021/11/30 09:10:03;;;;;;;;;;;8.10;99.90;;;;;;5095571;28;20007;-78
2021/11/30 09:12:29;;;;;;;;;;;8.10;99.90;;;;;;5114400;28;20351;-78
2021/11/30 09:14:55;;;;;;;;;;;8.10;99.90;;;;;;5114582;28;19943;-78
2021/11/30 09:17:22;;;;;;;;;;;8.50;99.90;;;;;;5114157;28;19907;-78
2021/11/30 09:19:48;;;;;;;;;;;8.50;99.90;;;;;;5114134;28;19950;-78
2021/11/30 09:22:13;;;;;;;;;;;8.60;99.90;;;;;;5114098;28;20271;-78
2021/11/30 09:24:39;;;;;;;;;;;8.60;99.90;;;;;;5114496;28;20276;-78
2021/11/30 09:27:05;;;;;;;;;;;8.60;99.90;;;;;;5095817;28;19911;-78
2021/11/30 09:29:31;;;;;;;;;;;8.60;99.90;;;;;;5114148;28;19992;-78
2021/11/30 09:31:57;;;;;;;;;;;8.60;99.90;;;;;;5113902;28;20497;-78
2021/11/30 09:34:24;;;;;;;;;;;8.70;99.90;;;;;;5113996;28;19947;-78
2021/11/30 09:36:50;;;;;;;;;;;8.80;99.90;;;;;;5114179;28;20336;-78
2021/11/30 09:39:16;;;;;;;;;;;8.90;99.90;;;;;;5114261;28;19919;-78
2021/11/30 09:41:44;;;;;;;;;;;9.00;99.90;;;;;;5114039;28;19912;-78
2021/11/30 09:44:10;;;;;;;;;;;9.00;99.90;;;;;;5113847;28;19911;-79
2021/11/30 09:46:36;;;;;;;;;;;8.80;99.90;;;;;;5095550;28;19919;-79
2021/11/30 09:49:02;;;;;;;;;;;9.00;99.90;;;;;;5116712;28;19908;-78
2021/11/30 09:51:28;;;;;;;;;;;9.00;99.90;;;;;;5117849;28;19912;-78
2021/11/30 09:53:53;;;;;;;;;;;9.00;99.90;;;;;;5117880;28;19957;-79
2021/11/30 09:56:19;;;;;;;;;;;9.20;99.90;;;;;;5117856;28;19972;-78
2021/11/30 09:58:46;;;;;;;;;;;9.30;99.90;;;;;;5117794;28;19908;-78
2021/11/30 10:01:12;;;;;;;;;;;9.40;99.90;;;;;;5099436;28;20437;-78
2021/11/30 10:03:40;;;;;;;;;;;9.80;99.90;;;;;;5099409;28;19947;-78
2021/11/30 10:06:06;;;;;;;;;;;9.90;99.90;;;;;;5117684;28;19919;-78
2021/11/30 10:08:31;;;;;;;;;;;9.90;99.90;;;;;;5117637;28;19908;-78
2021/11/30 10:10:58;;;;;;;;;;;10.00;99.90;;;;;;5117272;28;19920;-78
2021/11/30 10:13:23;;;;;;;;;;;9.90;99.90;;;;;;5117500;28;20378;-78
2021/11/30 10:15:51;;;;;;;;;;;10.00;99.90;;;;;;5117474;28;19983;-78
2021/11/30 10:18:18;;;;;;;;;;;9.90;99.90;;;;;;5117868;28;19908;-78
2021/11/30 10:20:44;;;;;;;;;;;10.10;99.90;;;;;;5117410;28;19914;-78
2021/11/30 10:23:11;;;;;;;;;;;10.10;99.90;;;;;;5117272;28;19908;-78
2021/11/30 10:25:40;;;;;;;;;;;10.20;99.90;;;;;;5117518;28;20317;-78
2021/11/30 10:28:07;;;;;;;;;;;10.20;99.90;;;;;;5098930;28;19912;-79
2021/11/30 10:30:34;;;;;;;;;;;10.20;99.90;;;;;;5117098;28;20287;-78
2021/11/30 10:33:07;;;;;;;;;;;10.20;99.90;;;;;;5117607;28;20349;-78
2021/11/30 10:35:33;;;;;;;;;;;10.50;99.90;;;;;;5117039;28;19961;-78
2021/11/30 10:38:00;;;;;;;;;;;10.60;99.90;;;;;;5117140;28;19908;-78
2021/11/30 10:40:27;;;;;;;;;;;11.00;99.90;;;;;;5116943;28;19908;-79
2021/11/30 10:42:57;;;;;;;;;;;11.70;99.90;;;;;;5117167;28;20062;-79
2021/11/30 10:45:24;;;;;;;;;;;12.00;99.90;;;;;;5098595;28;19915;-79
2021/11/30 10:47:49;;;;;;;;;;;12.00;99.90;;;;;;5116852;28;19933;-78
2021/11/30 10:50:21;;;;;;;;;;;11.90;99.90;;;;;;5116855;28;19994;-79
2021/11/30 10:52:47;;;;;;;;;;;11.80;99.90;;;;;;5116795;28;20391;-78
2021/11/30 10:55:14;;;;;;;;;;;11.60;99.90;;;;;;5116833;28;19953;-78
2021/11/30 10:57:41;;;;;;;;;;;12.40;99.90;;;;;;5116635;28;19949;-78
2021/11/30 11:00:11;;;;;;;;;;;12.10;99.90;;;;;;5097687;28;19912;-79
2021/11/30 11:02:53;;;;;;;;;;;12.30;99.90;;;;;;5116808;28;19973;-79
2021/11/30 11:05:26;;;;;;;;;;;12.40;99.90;;;;;;5116723;28;19908;-78
2021/11/30 11:08:03;;;;;;;;;;;13.70;99.90;;;;;;5116485;28;19908;-79
2021/11/30 11:10:29;;;;;;;;;;;14.40;99.90;;;;;;5116243;28;19927;-79
2021/11/30 11:12:55;;;;;;;;;;;13.60;99.90;;;;;;5116259;28;19912;-79
2021/11/30 11:15:39;;;;;;;;;;;13.70;99.90;;;;;;5116444;28;19992;-79
2021/11/30 11:18:24;;;;;;;;;;;13.50;99.90;;;;;;5116304;28;19914;-79
2021/11/30 11:21:10;;;;;;;;;;;13.10;99.90;;;;;;5115642;28;20315;-79
2021/11/30 11:23:43;;;;;;;;;;;13.70;99.90;;;;;;5098098;28;20372;-78
2021/11/30 11:26:20;;;;;;;;;;;14.00;99.90;;;;;;5097582;28;20425;-78
2021/11/30 11:28:46;;;;;;;;;;;14.00;99.90;;;;;;5116167;28;19911;-78
2021/11/30 11:31:11;;;;;;;;;;;13.80;99.90;;;;;;5097601;28;19912;-79
2021/11/30 11:33:37;;;;;;;;;;;14.10;99.90;;;;;;5116307;28;19915;-79
2021/11/30 11:36:06;;;;;;;;;;;13.70;99.90;;;;;;5115906;28;19908;-78
2021/11/30 11:38:32;;;;;;;;;;;14.50;99.90;;;;;;5115848;28;19908;-79
2021/11/30 11:40:57;;;;;;;;;;;15.90;99.70;;;;;;5115730;28;19908;-79
2021/11/30 11:43:24;;;;;;;;;;;15.50;99.50;;;;;;5115730;28;19908;-79
2021/11/30 11:45:49;;;;;;;;;;;16.10;97.60;;;;;;5115814;28;19968;-80
2021/11/30 11:48:15;;;;;;;;;;;16.60;98.10;;;;;;5115787;28;20428;-78
2021/11/30 11:50:50;;;;;;;;;;;16.10;96.60;;;;;;5115548;28;20393;-79
2021/11/30 11:53:25;;;;;;;;;;;15.80;97.80;;;;;;5115569;28;19916;-78
2021/11/30 11:56:09;;;;;;;;;;;15.60;98.40;;;;;;5115482;28;19908;-79
2021/11/30 11:58:35;;;;;;;;;;;15.70;97.70;;;;;;5115536;28;19907;-78
2021/11/30 12:01:01;;;;;;;;;;;15.20;98.10;;;;;;5115633;28;19908;-78
2021/11/30 12:03:45;;;;;;;;;;;14.40;97.40;;;;;;5115709;28;19912;-79
2021/11/30 12:06:25;;;;;;;;;;;14.60;98.70;;;;;;5115303;28;19908;-81
2021/11/30 12:09:07;;;;;;;;;;;15.00;97.20;;;;;;5115607;28;19999;-80
2021/11/30 12:11:42;;;;;;;;;;;16.20;94.10;;;;;;5114096;28;19919;-79
2021/11/30 12:14:22;;;;;;;;;;;14.10;97.20;;;;;;5115212;28;19915;-78
2021/11/30 12:17:02;;;;;;;;;;;14.60;97.50;;;;;;5115125;28;19908;-78
2021/11/30 12:19:29;;;;;;;;;;;15.00;96.80;;;;;;5115270;28;19908;-78
2021/11/30 12:21:55;;;;;;;;;;;14.40;96.60;;;;;;5096805;28;19908;-79
2021/11/30 12:24:39;;;;;;;;;;;15.40;96.50;;;;;;5114939;28;20010;-80
2021/11/30 12:27:17;;;;;;;;;;;15.70;95.70;;;;;;5102946;28;19919;-79
2021/11/30 12:29:43;;;;;;;;;;;15.20;96.20;;;;;;5098633;28;19908;-78
2021/11/30 12:32:30;;;;;;;;;;;14.80;96.10;;;;;;5103325;28;19982;-78
2021/11/30 12:34:56;;;;;;;;;;;14.50;96.10;;;;;;5104075;28;19915;-80
2021/11/30 12:37:23;;;;;;;;;;;15.10;96.50;;;;;;5102724;28;20426;-78
2021/11/30 12:40:04;;;;;;;;;;;14.90;95.00;;;;;;5102767;28;19961;-79
2021/11/30 12:42:30;;;;;;;;;;;14.60;96.20;;;;;;5103334;28;20327;-78
2021/11/30 12:44:56;;;;;;;;;;;15.20;94.80;;;;;;5103451;28;19912;-79
2021/11/30 12:47:24;;;;;;;;;;;15.60;94.30;;;;;;5107436;28;19918;-79
2021/11/30 12:49:49;;;;;;;;;;;15.10;94.50;;;;;;5114592;28;20368;-78
2021/11/30 12:52:34;;;;;;;;;;;14.70;95.90;;;;;;5114408;28;20052;-79
2021/11/30 12:55:00;;;;;;;;;;;14.10;96.40;;;;;;5114800;28;19949;-79
2021/11/30 12:57:28;;;;;;;;;;;13.60;97.30;;;;;;5096163;28;20376;-78
2021/11/30 12:59:55;;;;;;;;;;;13.70;97.60;;;;;;5096148;28;19908;-78
2021/11/30 13:02:24;;;;;;;;;;;13.40;98.50;;;;;;5114404;28;20315;-78
2021/11/30 13:04:52;;;;;;;;;;;13.50;98.40;;;;;;5114340;28;19990;-78
2021/11/30 13:07:19;;;;;;;;;;;13.50;99.10;;;;;;5114364;28;19914;-79
2021/11/30 13:09:45;;;;;;;;;;;13.60;98.80;;;;;;5112082;28;19908;-78
2021/11/30 13:12:22;;;;;;;;;;;13.40;98.60;;;;;;5093902;28;20002;-78
2021/11/30 13:14:48;;;;;;;;;;;13.00;99.10;;;;;;5094099;28;19908;-78
2021/11/30 13:17:14;;;;;;;;;;;13.00;99.90;;;;;;5093798;28;19912;-78
2021/11/30 13:19:42;;;;;;;;;;;12.90;99.90;;;;;;5093820;28;20277;-78
2021/11/30 13:22:08;;;;;;;;;;;13.00;99.90;;;;;;5093718;28;20343;-79
2021/11/30 13:24:37;;;;;;;;;;;13.00;99.90;;;;;;5093975;28;19999;-78
2021/11/30 13:27:09;;;;;;;;;;;12.80;99.90;;;;;;5093890;28;19908;-78
2021/11/30 13:29:35;;;;;;;;;;;12.70;99.90;;;;;;5093659;28;19908;-78
2021/11/30 13:32:01;;;;;;;;;;;12.90;99.90;;;;;;5093580;28;20315;-78
2021/11/30 13:34:27;;;;;;;;;;;13.10;99.90;;;;;;5093851;28;19913;-78
2021/11/30 13:36:52;;;;;;;;;;;13.10;99.90;;;;;;5093781;28;19908;-78
2021/11/30 13:39:18;;;;;;;;;;;13.10;99.90;;;;;;5093522;28;19931;-78
2021/11/30 13:41:43;;;;;;;;;;;12.80;99.90;;;;;;5093615;28;19915;-78
2021/11/30 13:44:09;;;;;;;;;;;13.10;99.90;;;;;;5075404;28;19908;-78
2021/11/30 13:46:36;;;;;;;;;;;13.50;99.30;;;;;;5093566;28;19956;-78
2021/11/30 13:49:07;;;;;;;;;;;13.10;98.80;;;;;;5093913;28;19915;-78
2021/11/30 13:51:35;;;;;;;;;;;12.90;99.90;;;;;;5075399;28;19955;-78
2021/11/30 13:54:02;;;;;;;;;;;12.90;99.90;;;;;;5093611;28;20376;-79
2021/11/30 13:56:30;;;;;;;;;;;13.00;99.90;;;;;;5093528;28;19914;-78
2021/11/30 14:01:36;;;;;;;;;;;13.20;99.80;;;;;;5093442;28;20359;-79
2021/11/30 14:04:01;;;;;;;;;;;13.20;99.60;;;;;;5093459;28;19908;-78
2021/11/30 14:06:28;;;;;;;;;;;12.90;99.40;;;;;;5075215;28;19908;-78
2021/11/30 14:08:56;;;;;;;;;;;12.70;99.90;;;;;;5093720;28;19908;-78
2021/11/30 14:11:23;;;;;;;;;;;12.80;99.90;;;;;;5093068;28;19927;-78
2021/11/30 14:13:49;;;;;;;;;;;12.70;99.90;;;;;;5075157;28;19934;-78
2021/11/30 14:16:14;;;;;;;;;;;12.70;99.90;;;;;;5093271;28;19951;-77
2021/11/30 14:18:54;;;;;;;;;;;12.80;99.90;;;;;;5093465;28;19943;-78
2021/11/30 14:21:20;;;;;;;;;;;12.80;99.90;;;;;;5093278;28;19908;-78
2021/11/30 14:24:00;;;;;;;;;;;12.90;99.90;;;;;;5093523;28;19919;-78
2021/11/30 14:26:25;;;;;;;;;;;12.80;99.90;;;;;;5093156;28;19953;-78
2021/11/30 14:28:58;;;;;;;;;;;13.10;99.90;;;;;;5093379;28;20007;-78
2021/11/30 14:31:24;;;;;;;;;;;12.90;99.90;;;;;;5093239;28;19912;-78
2021/11/30 14:33:50;;;;;;;;;;;12.80;99.80;;;;;;5074953;28;19912;-78
2021/11/30 14:36:25;;;;;;;;;;;12.80;99.90;;;;;;5095979;28;19915;-78
2021/11/30 14:38:51;;;;;;;;;;;12.80;99.90;;;;;;5096604;28;20343;-78